Terminal Aerodrome Forecast
Issued by NWS Wilmington, OH

Current Version | Previous Version | Text Only | Print | Product List | Glossary Off
Versions: 1 2 3 4 5 6 7 8 9 10 11 12 13 14 15 16 17 18 19 20 21 22 23 24

000
FTUS41 KILN 221458 AAA
TAFCVG
TAF AMD
KCVG 221458Z 2215/2318 05006KT P6SM FEW080 OVC200
     FM222100 06010KT P6SM VCSH SCT025 OVC080
     FM230000 03010KT 5SM -SHRA BR OVC015
     FM231000 36010KT 3SM -SHRA BR OVC007
     FM231600 35010KT P6SM VCSH OVC012=

USA.gov is the U.S. government's official web portal to all federal, state and local government web resources and services.